createdAt,value
2023-04-15T00:02:23.049Z,97064.88
2023-04-15T00:04:51.117Z,97062.42
2023-04-15T00:07:19.086Z,97065.91
2023-04-15T00:09:47.064Z,97059.52
2023-04-15T00:12:14.969Z,97057.79
2023-04-15T00:14:42.895Z,97056.39
2023-04-15T00:17:10.861Z,97056.95
2023-04-15T00:19:38.752Z,97067.65
2023-04-15T00:22:07.191Z,97072.78
2023-04-15T00:24:35.170Z,97079.94
2023-04-15T00:27:03.767Z,97084.17
2023-04-15T00:29:32.371Z,97086.71
2023-04-15T00:32:00.375Z,97089.42
2023-04-15T00:34:29.025Z,97090.27
2023-04-15T00:36:57.335Z,97088.08
2023-04-15T00:39:25.251Z,97089.34
2023-04-15T00:41:54.390Z,97090.27
2023-04-15T00:44:22.401Z,97099.55
2023-04-15T00:46:54.337Z,97110.93
2023-04-15T00:49:23.187Z,97111.02
2023-04-15T00:51:51.655Z,97113.70
2023-04-15T00:54:19.640Z,97113.97
2023-04-15T00:56:47.573Z,97119.97
2023-04-15T00:59:16.849Z,97125.66
2023-04-15T01:01:45.399Z,97128.05
2023-04-15T01:04:14.179Z,97122.30
2023-04-15T01:06:42.496Z,97121.35
2023-04-15T01:09:11.960Z,97121.41
2023-04-15T01:11:40.618Z,97122.05
2023-04-15T01:14:11.028Z,97116.29
2023-04-15T01:16:40.007Z,97114.52
2023-04-15T01:19:10.835Z,97118.83
2023-04-15T01:21:39.972Z,97116.45
2023-04-15T01:24:10.595Z,97114.55
2023-04-15T01:26:39.933Z,97117.58
2023-04-15T01:29:09.735Z,97112.38
2023-04-15T01:31:37.861Z,97114.45
2023-04-15T01:34:06.466Z,97111.83
2023-04-15T01:36:34.555Z,97115.17
2023-04-15T01:39:02.807Z,97116.21
2023-04-15T01:41:30.972Z,97117.05
2023-04-15T01:43:58.829Z,97120.66
2023-04-15T01:46:27.065Z,97119.10
2023-04-15T01:48:55.066Z,97115.30
2023-04-15T01:51:23.319Z,97118.27
2023-04-15T01:53:52.504Z,97117.67
2023-04-15T01:56:20.404Z,97123.48
2023-04-15T01:58:48.536Z,97118.95
2023-04-15T02:01:19.771Z,97121.90
2023-04-15T02:03:48.386Z,97124.23
2023-04-15T02:06:16.701Z,97128.41
2023-04-15T02:08:44.468Z,97133.09
2023-04-15T02:11:12.628Z,97142.92
2023-04-15T02:13:40.782Z,97144.00
2023-04-15T02:16:21.561Z,97152.83
2023-04-15T02:18:49.569Z,97156.13
2023-04-15T02:21:19.042Z,97156.10
2023-04-15T02:23:48.410Z,97155.55
2023-04-15T02:26:16.329Z,97160.42
2023-04-15T02:28:44.230Z,97162.42
2023-04-15T02:31:16.056Z,97161.95
2023-04-15T02:33:44.055Z,97157.98
2023-04-15T02:36:12.659Z,97155.85
2023-04-15T02:38:42.453Z,97156.05
2023-04-15T02:41:52.034Z,97157.94
2023-04-15T02:44:20.703Z,97162.31
2023-04-15T02:46:52.623Z,97166.64
2023-04-15T02:49:21.778Z,97170.31
2023-04-15T02:51:49.997Z,97173.02
2023-04-15T02:54:26.033Z,97171.97
2023-04-15T02:56:55.463Z,97177.80
2023-04-15T02:59:23.646Z,97180.84
2023-04-15T03:01:51.791Z,97183.75
2023-04-15T03:04:19.812Z,97184.25
2023-04-15T03:06:48.011Z,97190.08
2023-04-15T03:09:15.939Z,97188.80
2023-04-15T03:11:44.499Z,97188.46
2023-04-15T03:14:12.464Z,97190.78
2023-04-15T03:16:43.135Z,97195.64
2023-04-15T03:19:11.036Z,97197.83
2023-04-15T03:21:39.934Z,97203.38
2023-04-15T03:24:07.841Z,97206.73
2023-04-15T03:26:35.790Z,97201.46
2023-04-15T03:29:08.887Z,97199.02
2023-04-15T03:31:36.837Z,97198.20
2023-04-15T03:34:04.638Z,97198.05
2023-04-15T03:36:35.670Z,97205.43
2023-04-15T03:39:04.473Z,97208.30
2023-04-15T03:41:33.149Z,97208.98
2023-04-15T03:44:01.257Z,97213.02
2023-04-15T03:46:29.273Z,97217.98
2023-04-15T03:48:57.183Z,97219.86
2023-04-15T03:51:25.105Z,97223.48
2023-04-15T03:53:53.021Z,97231.24
2023-04-15T03:56:21.080Z,97234.57
2023-04-15T03:58:49.016Z,97237.92
2023-04-15T04:01:16.979Z,97240.46
2023-04-15T04:03:45.068Z,97243.22
2023-04-15T04:06:13.152Z,97240.29
2023-04-15T04:08:41.549Z,97246.79
2023-04-15T04:11:09.721Z,97245.92
2023-04-15T04:13:37.585Z,97242.48
2023-04-15T04:16:05.886Z,97247.29
2023-04-15T04:18:34.112Z,97246.89
2023-04-15T04:21:02.314Z,97246.33
2023-04-15T04:23:30.579Z,97248.52
2023-04-15T04:25:58.527Z,97254.58
2023-04-15T04:28:26.447Z,97255.81
2023-04-15T04:30:54.510Z,97254.30
2023-04-15T04:33:22.593Z,97258.59
2023-04-15T04:35:50.614Z,97267.38
2023-04-15T04:38:18.991Z,97267.23
2023-04-15T04:40:46.940Z,97273.30
2023-04-15T04:43:16.113Z,97278.92
2023-04-15T04:45:44.068Z,97283.83
2023-04-15T04:48:12.109Z,97282.08
2023-04-15T04:50:40.082Z,97284.77
2023-04-15T04:53:08.224Z,97282.17
2023-04-15T04:55:38.879Z,97281.20
2023-04-15T04:58:07.098Z,97270.67
2023-04-15T05:00:35.164Z,97271.61
2023-04-15T05:03:03.294Z,97277.77
2023-04-15T05:05:31.576Z,97278.44
2023-04-15T05:07:59.426Z,97283.61
2023-04-15T05:10:27.402Z,97277.44
2023-04-15T05:12:55.479Z,97278.00
2023-04-15T05:15:23.402Z,97285.20
2023-04-15T05:17:51.712Z,97287.48
2023-04-15T05:20:20.057Z,97288.59
2023-04-15T05:22:47.987Z,97287.05
2023-04-15T05:25:16.580Z,97286.23
2023-04-15T05:27:44.509Z,97287.45
2023-04-15T05:30:13.847Z,97290.84
2023-04-15T05:32:41.987Z,97292.71
2023-04-15T05:35:09.897Z,97297.47
2023-04-15T05:37:37.922Z,97302.64
2023-04-15T05:40:06.437Z,97305.83
2023-04-15T05:42:35.708Z,97303.27
2023-04-15T05:45:09.249Z,97306.61
2023-04-15T05:47:37.844Z,97307.06
2023-04-15T05:50:06.809Z,97310.47
2023-04-15T05:52:34.880Z,97306.41
2023-04-15T05:55:02.969Z,97307.91
2023-04-15T05:57:31.162Z,97311.58
2023-04-15T05:59:59.127Z,97315.95
2023-04-15T06:02:28.132Z,97319.21
2023-04-15T06:04:56.106Z,97316.06
2023-04-15T06:07:24.381Z,97318.23
2023-04-15T06:09:52.334Z,97323.91
2023-04-15T06:12:20.443Z,97328.89
2023-04-15T06:14:48.869Z,97330.56
2023-04-15T06:17:18.642Z,97331.88
2023-04-15T06:19:47.045Z,97330.36
2023-04-15T06:22:14.969Z,97333.41
2023-04-15T06:24:43.014Z,97338.32
2023-04-15T06:27:11.545Z,97343.60
2023-04-15T06:29:39.728Z,97342.85
2023-04-15T06:32:07.899Z,97343.52
2023-04-15T06:34:35.858Z,97346.02
2023-04-15T06:37:05.773Z,97346.02
2023-04-15T06:39:34.545Z,97346.81
2023-04-15T06:42:03.680Z,97349.20
2023-04-15T06:44:33.798Z,97348.08
2023-04-15T06:47:02.408Z,97349.05
2023-04-15T06:49:30.306Z,97354.91
2023-04-15T06:51:58.154Z,97356.73
2023-04-15T06:54:26.707Z,97360.55
2023-04-15T06:56:54.713Z,97359.43
2023-04-15T06:59:22.581Z,97360.69
2023-04-15T07:01:50.656Z,97367.17
2023-04-15T07:04:18.796Z,97372.95
2023-04-15T07:06:46.830Z,97371.54
2023-04-15T07:09:15.489Z,97373.94
2023-04-15T07:11:43.414Z,97377.05
2023-04-15T07:14:11.730Z,97373.45
2023-04-15T07:16:39.680Z,97376.70
2023-04-15T07:19:07.541Z,97380.48
2023-04-15T07:21:35.553Z,97385.95
2023-04-15T07:24:03.378Z,97387.09
2023-04-15T07:26:31.356Z,97389.77
2023-04-15T07:28:59.511Z,97391.54
2023-04-15T07:31:27.886Z,97385.15
2023-04-15T07:33:55.836Z,97383.03
2023-04-15T07:36:24.221Z,97386.29
2023-04-15T07:38:52.730Z,97385.18
2023-04-15T07:41:21.217Z,97388.23
2023-04-15T07:43:49.151Z,97392.82
2023-04-15T07:46:17.113Z,97389.41
2023-04-15T07:48:45.005Z,97390.40
2023-04-15T07:51:13.237Z,97391.16
2023-04-15T07:53:41.144Z,97388.06
2023-04-15T07:56:09.090Z,97382.64
2023-04-15T07:58:37.433Z,97386.82
2023-04-15T08:01:05.642Z,97384.71
2023-04-15T08:03:33.895Z,97384.16
2023-04-15T08:06:02.562Z,97383.55
2023-04-15T08:08:30.648Z,97387.66
2023-04-15T08:10:59.106Z,97389.31
2023-04-15T08:13:27.530Z,97382.78
2023-04-15T08:16:14.736Z,97385.09
2023-04-15T08:18:42.700Z,97382.73
2023-04-15T08:21:11.855Z,97383.61
2023-04-15T08:23:40.125Z,97382.98
2023-04-15T08:26:08.958Z,97381.39
2023-04-15T08:28:39.728Z,97382.23
2023-04-15T08:31:08.075Z,97386.76
2023-04-15T08:33:36.458Z,97385.19
2023-04-15T08:36:04.891Z,97387.11
2023-04-15T08:38:32.795Z,97385.93
2023-04-15T08:41:07.498Z,97383.41
2023-04-15T08:43:38.318Z,97385.11
2023-04-15T08:46:06.513Z,97386.44
2023-04-15T08:48:36.022Z,97385.65
2023-04-15T08:51:05.217Z,97390.33
2023-04-15T08:53:33.791Z,97389.89
2023-04-15T08:56:07.783Z,97390.26
2023-04-15T08:58:37.222Z,97387.16
2023-04-15T09:01:05.247Z,97388.86
2023-04-15T09:03:33.749Z,97387.93
2023-04-15T09:06:05.007Z,97385.01
2023-04-15T09:08:34.775Z,97394.45
2023-04-15T09:11:05.845Z,97396.38
2023-04-15T09:13:33.947Z,97397.23
2023-04-15T09:16:04.495Z,97394.82
2023-04-15T09:18:34.804Z,97394.23
2023-04-15T09:21:11.495Z,97393.12
2023-04-15T09:23:41.986Z,97385.66
2023-04-15T09:26:10.009Z,97387.72
2023-04-15T09:28:44.040Z,97393.98
2023-04-15T09:31:12.240Z,97389.70
2023-04-15T09:33:57.152Z,97393.96
2023-04-15T09:36:29.950Z,97388.52
2023-04-15T09:38:59.579Z,97398.29
2023-04-15T09:41:28.687Z,97394.67
2023-04-15T09:43:56.749Z,97399.38
2023-04-15T09:46:44.727Z,97397.03
2023-04-15T09:49:13.595Z,97394.06
2023-04-15T09:51:44.807Z,97387.13
2023-04-15T09:54:22.497Z,97396.21
2023-04-15T09:56:50.458Z,97393.00
2023-04-15T09:59:20.126Z,97387.66
2023-04-15T10:01:49.342Z,97388.38
2023-04-15T10:04:18.236Z,97384.89
2023-04-15T10:06:46.839Z,97385.70
2023-04-15T10:09:14.718Z,97382.98
2023-04-15T10:11:43.211Z,97381.19
2023-04-15T10:14:13.850Z,97383.32
2023-04-15T10:16:49.044Z,97382.21
2023-04-15T10:19:23.038Z,97381.34
2023-04-15T10:21:52.410Z,97384.17
2023-04-15T10:24:21.155Z,97385.05
2023-04-15T10:26:50.055Z,97390.11
2023-04-15T10:29:18.625Z,97391.83
2023-04-15T10:31:47.245Z,97385.61
2023-04-15T10:34:16.439Z,97384.84
2023-04-15T10:36:44.431Z,97386.33
2023-04-15T10:39:34.594Z,97383.95
2023-04-15T10:42:20.264Z,97387.21
2023-04-15T10:44:57.115Z,97387.72
2023-04-15T10:47:25.693Z,97380.30
2023-04-15T10:50:02.611Z,97382.02
2023-04-15T10:52:30.627Z,97379.33
2023-04-15T10:55:14.844Z,97382.05
2023-04-15T10:57:45.347Z,97386.89
2023-04-15T11:00:14.984Z,97382.11
2023-04-15T11:03:14.109Z,97384.27
2023-04-15T11:05:42.666Z,97385.93
2023-04-15T11:08:12.392Z,97385.98
2023-04-15T11:10:40.414Z,97386.06
2023-04-15T11:13:11.420Z,97384.55
2023-04-15T11:15:43.049Z,97386.24
2023-04-15T11:18:11.018Z,97383.42
2023-04-15T11:20:41.637Z,97384.48
2023-04-15T11:23:14.024Z,97386.46
2023-04-15T11:25:44.145Z,97385.00
2023-04-15T11:28:13.558Z,97385.75
2023-04-15T11:30:42.492Z,97388.41
2023-04-15T11:33:12.577Z,97390.66
2023-04-15T11:35:44.215Z,97391.95
2023-04-15T11:38:14.283Z,97392.33
2023-04-15T11:40:46.197Z,97389.50
2023-04-15T11:43:20.346Z,97390.98
2023-04-15T11:45:56.997Z,97393.25
2023-04-15T11:48:33.118Z,97398.01
2023-04-15T11:51:06.586Z,97398.98
2023-04-15T11:53:44.533Z,97395.04
2023-04-15T11:56:19.691Z,97396.69
2023-04-15T11:58:50.790Z,97395.85
2023-04-15T12:01:19.526Z,97397.15
2023-04-15T12:03:50.276Z,97395.84
2023-04-15T12:06:19.720Z,97393.30
2023-04-15T12:09:15.516Z,97396.10
2023-04-15T12:11:44.984Z,97394.49
2023-04-15T12:14:15.787Z,97393.29
2023-04-15T12:16:51.812Z,97396.73
2023-04-15T12:19:26.601Z,97397.23
2023-04-15T12:22:02.142Z,97397.69
2023-04-15T12:24:36.010Z,97394.20
2023-04-15T12:27:06.214Z,97397.83
2023-04-15T12:29:36.586Z,97402.61
2023-04-15T12:32:15.914Z,97402.70
2023-04-15T12:34:49.362Z,97401.63
2023-04-15T12:37:17.879Z,97403.02
2023-04-15T12:39:49.091Z,97408.58
2023-04-15T12:42:18.624Z,97409.79
2023-04-15T12:44:47.090Z,97409.41
2023-04-15T12:47:15.091Z,97409.42
2023-04-15T12:49:43.265Z,97411.05
2023-04-15T12:52:11.332Z,97409.48
2023-04-15T12:54:39.459Z,97410.45
2023-04-15T12:57:07.869Z,97409.65
2023-04-15T12:59:36.586Z,97412.73
2023-04-15T13:02:04.761Z,97409.40
2023-04-15T13:04:32.921Z,97405.52
2023-04-15T13:07:02.252Z,97405.20
2023-04-15T13:09:31.145Z,97408.75
2023-04-15T13:11:59.437Z,97408.65
2023-04-15T13:14:27.275Z,97406.88
2023-04-15T13:16:55.222Z,97407.55
2023-04-15T13:19:23.080Z,97405.20
2023-04-15T13:21:51.297Z,97405.27
2023-04-15T13:24:19.215Z,97406.66
2023-04-15T13:26:48.586Z,97405.45
2023-04-15T13:29:18.168Z,97409.38
2023-04-15T13:31:46.350Z,97414.34
2023-04-15T13:34:14.361Z,97417.64
2023-04-15T13:36:42.240Z,97409.13
2023-04-15T13:39:10.126Z,97410.63
2023-04-15T13:41:38.169Z,97412.13
2023-04-15T13:44:06.606Z,97410.50
2023-04-15T13:46:35.094Z,97409.92
2023-04-15T13:49:03.138Z,97409.85
2023-04-15T13:51:32.228Z,97410.66
2023-04-15T13:54:00.189Z,97407.38
2023-04-15T13:56:28.999Z,97409.52
2023-04-15T13:59:02.409Z,97411.90
2023-04-15T14:01:30.387Z,97415.30
2023-04-15T14:03:58.448Z,97416.95
2023-04-15T14:06:35.915Z,97418.68
2023-04-15T14:09:21.079Z,97417.99
2023-04-15T14:12:03.177Z,97413.34
2023-04-15T14:14:31.258Z,97415.60
2023-04-15T14:16:59.336Z,97418.97
2023-04-15T14:19:27.415Z,97420.48
2023-04-15T14:21:55.534Z,97422.19
2023-04-15T14:24:23.629Z,97421.09
2023-04-15T14:26:51.834Z,97423.27
2023-04-15T14:29:20.281Z,97422.16
2023-04-15T14:32:04.147Z,97427.41
2023-04-15T14:34:38.152Z,97424.32
2023-04-15T14:37:06.405Z,97429.88
2023-04-15T14:39:34.751Z,97435.41
2023-04-15T14:42:02.714Z,97435.81
2023-04-15T14:46:59.697Z,97440.50
2023-04-15T14:49:27.869Z,97443.80
2023-04-15T14:51:55.768Z,97449.95
2023-04-15T14:54:23.616Z,97449.16
2023-04-15T14:56:51.613Z,97452.36
2023-04-15T14:59:19.482Z,97453.43
2023-04-15T15:01:47.590Z,97453.37
2023-04-15T15:04:15.917Z,97458.16
2023-04-15T15:06:43.945Z,97455.89
2023-04-15T15:09:11.791Z,97457.74
2023-04-15T15:11:39.746Z,97458.95
2023-04-15T15:14:07.667Z,97461.04
2023-04-15T15:16:35.837Z,97459.05
2023-04-15T15:19:04.504Z,97461.09
2023-04-15T15:21:32.699Z,97466.52
2023-04-15T15:24:00.630Z,97463.56
2023-04-15T15:26:28.994Z,97468.83
2023-04-15T15:28:57.085Z,97469.91
2023-04-15T15:31:25.149Z,97473.61
2023-04-15T15:33:53.307Z,97469.44
2023-04-15T15:36:21.296Z,97469.39
2023-04-15T15:38:49.268Z,97475.81
2023-04-15T15:41:17.170Z,97473.77
2023-04-15T15:43:45.056Z,97474.95
2023-04-15T15:46:13.120Z,97478.77
2023-04-15T15:48:41.065Z,97481.59
2023-04-15T15:51:08.930Z,97482.45
2023-04-15T15:53:37.089Z,97484.21
2023-04-15T15:56:05.516Z,97483.00
2023-04-15T15:58:33.821Z,97483.63
2023-04-15T16:01:02.022Z,97488.16
2023-04-15T16:03:30.225Z,97485.91
2023-04-15T16:05:58.237Z,97481.56
2023-04-15T16:08:26.677Z,97481.23
2023-04-15T16:10:54.991Z,97485.38
2023-04-15T16:13:23.106Z,97485.46
2023-04-15T16:15:51.155Z,97483.27
2023-04-15T16:18:19.140Z,97488.01
2023-04-15T16:20:47.207Z,97486.05
2023-04-15T16:23:17.244Z,97486.40
2023-04-15T16:25:45.812Z,97488.19
2023-04-15T16:28:25.558Z,97482.95
2023-04-15T16:30:55.606Z,97487.71
2023-04-15T16:33:23.509Z,97490.92
2023-04-15T16:35:51.711Z,97489.27
2023-04-15T16:38:19.675Z,97494.63
2023-04-15T16:40:47.614Z,97495.21
2023-04-15T16:43:15.587Z,97505.25
2023-04-15T16:45:45.618Z,97508.48
2023-04-15T16:48:13.731Z,97512.40
2023-04-15T16:50:41.644Z,97516.43
2023-04-15T16:53:09.856Z,97525.48
2023-04-15T16:55:37.889Z,97530.45
2023-04-15T16:58:07.969Z,97537.20
2023-04-15T17:00:37.074Z,97543.83
2023-04-15T17:03:06.152Z,97550.83
2023-04-15T17:05:34.552Z,97553.45
2023-04-15T17:08:02.695Z,97557.90
2023-04-15T17:10:31.354Z,97567.34
2023-04-15T17:13:00.059Z,97578.65
2023-04-15T17:15:28.086Z,97589.74
2023-04-15T17:17:56.241Z,97598.74
2023-04-15T17:20:24.384Z,97613.60
2023-04-15T17:22:52.460Z,97610.63
2023-04-15T17:25:21.032Z,97604.73
2023-04-15T17:27:49.291Z,97609.23
2023-04-15T17:30:17.269Z,97609.63
2023-04-15T17:32:45.390Z,97609.27
2023-04-15T17:35:13.519Z,97610.34
2023-04-15T17:37:41.516Z,97609.09
2023-04-15T17:40:09.912Z,97619.13
2023-04-15T17:42:38.012Z,97633.20
2023-04-15T17:45:06.581Z,97642.76
2023-04-15T17:47:34.933Z,97654.70
2023-04-15T17:50:03.104Z,97664.30
2023-04-15T17:52:31.256Z,97675.42
2023-04-15T17:54:59.546Z,97683.51
2023-04-15T17:57:27.686Z,97672.99
2023-04-15T17:59:55.844Z,97676.85
2023-04-15T18:02:24.074Z,97677.08
2023-04-15T18:04:52.694Z,97688.10
2023-04-15T18:07:21.017Z,97687.94
2023-04-15T18:09:50.799Z,97690.69
2023-04-15T18:12:18.867Z,97704.39
2023-04-15T18:14:46.816Z,97714.11
2023-04-15T18:17:15.144Z,97721.15
2023-04-15T18:19:43.627Z,97724.05
2023-04-15T18:22:12.109Z,97724.04
2023-04-15T18:24:40.553Z,97716.77
2023-04-15T18:27:08.748Z,97715.02
2023-04-15T18:29:36.797Z,97725.45
2023-04-15T18:32:05.112Z,97733.77
2023-04-15T18:34:33.188Z,97740.02
2023-04-15T18:37:01.508Z,97745.16
2023-04-15T18:39:29.493Z,97747.29
2023-04-15T18:41:57.686Z,97757.63
2023-04-15T18:44:25.766Z,97763.74
2023-04-15T18:46:54.363Z,97771.44
2023-04-15T18:49:22.356Z,97774.39
2023-04-15T18:51:50.642Z,97777.64
2023-04-15T18:54:18.507Z,97779.52
2023-04-15T18:56:46.837Z,97784.17
2023-04-15T18:59:28.792Z,97781.88
2023-04-15T19:02:00.288Z,97784.42
2023-04-15T19:04:31.028Z,97788.16
2023-04-15T19:06:59.346Z,97788.15
2023-04-15T19:09:29.036Z,97794.40
2023-04-15T19:11:57.776Z,97792.52
2023-04-15T19:14:26.213Z,97794.17
2023-04-15T19:16:54.280Z,97792.02
2023-04-15T19:19:22.311Z,97792.31
2023-04-15T19:21:50.777Z,97789.94
2023-04-15T19:24:19.930Z,97792.81
2023-04-15T19:26:50.480Z,97792.02
2023-04-15T19:29:18.824Z,97791.64
2023-04-15T19:31:46.882Z,97793.27
2023-04-15T19:34:14.800Z,97798.14
2023-04-15T19:36:42.978Z,97797.23
2023-04-15T19:39:11.236Z,97801.23
2023-04-15T19:41:39.399Z,97798.03
2023-04-15T19:44:07.388Z,97799.00
2023-04-15T19:46:35.802Z,97796.58
2023-04-15T19:49:04.238Z,97796.34
2023-04-15T19:51:37.623Z,97794.58
2023-04-15T19:54:06.085Z,97795.05
2023-04-15T19:56:34.549Z,97797.66
2023-04-15T19:59:02.816Z,97797.92
2023-04-15T20:01:31.096Z,97796.90
2023-04-15T20:03:59.758Z,97796.02
2023-04-15T20:06:28.525Z,97795.98
2023-04-15T20:08:56.477Z,97799.48
2023-04-15T20:12:05.677Z,97800.05
2023-04-15T20:14:17.880Z,97805.23
2023-04-15T20:16:45.853Z,97802.23
2023-04-15T20:19:13.975Z,97800.30
2023-04-15T20:21:45.997Z,97799.98
2023-04-15T20:24:13.845Z,97800.71
2023-04-15T20:26:41.892Z,97802.60
2023-04-15T20:29:09.744Z,97806.96
2023-04-15T20:31:37.889Z,97808.35
2023-04-15T20:34:06.002Z,97809.12
2023-04-15T20:36:34.016Z,97809.84
2023-04-15T20:39:01.916Z,97810.54
2023-04-15T20:41:29.946Z,97812.29
2023-04-15T20:43:57.947Z,97817.63
2023-04-15T20:46:27.603Z,97823.56
2023-04-15T20:48:56.332Z,97829.91
2023-04-15T20:51:24.301Z,97829.45
2023-04-15T20:53:52.404Z,97829.20
2023-04-15T20:56:20.453Z,97826.84
2023-04-15T20:58:48.379Z,97830.60
2023-04-15T21:01:16.353Z,97831.44
2023-04-15T21:03:44.364Z,97835.27
2023-04-15T21:06:12.465Z,97838.40
2023-04-15T21:08:40.511Z,97841.77
2023-04-15T21:11:08.516Z,97840.37
2023-04-15T21:13:36.351Z,97837.73
2023-04-15T21:16:04.452Z,97834.02
2023-04-15T21:18:32.329Z,97838.92
2023-04-15T21:21:02.063Z,97845.06
2023-04-15T21:23:30.739Z,97847.80
2023-04-15T21:25:58.910Z,97852.73
2023-04-15T21:28:28.147Z,97850.92
2023-04-15T21:30:59.570Z,97851.77
2023-04-15T21:33:27.548Z,97853.73
2023-04-15T21:35:55.454Z,97854.41
2023-04-15T21:38:23.599Z,97859.02
2023-04-15T21:40:51.693Z,97863.23
2023-04-15T21:43:21.757Z,97863.04
2023-04-15T21:46:20.698Z,97866.23
2023-04-15T21:48:37.655Z,97864.67
2023-04-15T21:51:06.041Z,97873.16
2023-04-15T21:53:34.185Z,97872.59
2023-04-15T21:56:02.120Z,97876.82
2023-04-15T21:58:29.989Z,97878.39
2023-04-15T22:01:00.192Z,97886.88
2023-04-15T22:03:34.407Z,97888.95
2023-04-15T22:06:04.363Z,97891.81
2023-04-15T22:08:38.671Z,97887.66
2023-04-15T22:11:26.422Z,97887.97
2023-04-15T22:13:54.845Z,97893.98
2023-04-15T22:16:23.178Z,97899.23
2023-04-15T22:18:51.444Z,97902.04
2023-04-15T22:21:19.362Z,97903.80
2023-04-15T22:23:48.476Z,97912.32
2023-04-15T22:26:16.425Z,97916.12
2023-04-15T22:28:44.451Z,97924.42
2023-04-15T22:31:12.511Z,97925.08
2023-04-15T22:33:40.738Z,97929.13
2023-04-15T22:36:08.848Z,97929.28
2023-04-15T22:38:36.703Z,97933.96
2023-04-15T22:41:04.715Z,97934.77
2023-04-15T22:43:32.615Z,97935.39
2023-04-15T22:46:01.227Z,97934.80
2023-04-15T22:48:29.106Z,97936.85
2023-04-15T22:50:57.148Z,97945.20
2023-04-15T22:53:25.100Z,97948.54
2023-04-15T22:55:54.116Z,97950.41
2023-04-15T22:58:22.078Z,97955.25
2023-04-15T23:00:50.415Z,97953.61
2023-04-15T23:03:18.470Z,97956.64
2023-04-15T23:05:47.055Z,97955.98
2023-04-15T23:08:15.581Z,97960.20
2023-04-15T23:10:44.762Z,97965.30
2023-04-15T23:13:12.681Z,97967.76
2023-04-15T23:15:40.680Z,97972.64
2023-04-15T23:18:08.677Z,97974.45
2023-04-15T23:20:36.691Z,97973.80
2023-04-15T23:23:04.583Z,97972.38
2023-04-15T23:25:32.629Z,97973.28
2023-04-15T23:28:01.081Z,97976.56
2023-04-15T23:30:29.100Z,97976.23
2023-04-15T23:32:58.342Z,97977.84
2023-04-15T23:35:27.366Z,97980.23
2023-04-15T23:37:55.329Z,97982.10
2023-04-15T23:40:23.160Z,97984.45
2023-04-15T23:42:51.859Z,97987.44
2023-04-15T23:45:19.914Z,97988.45
2023-04-15T23:47:47.925Z,97989.33
2023-04-15T23:50:16.148Z,97994.02
2023-04-15T23:52:44.129Z,97995.04
2023-04-15T23:55:12.121Z,98002.17
2023-04-15T23:57:41.277Z,98002.45
